Time;durP1;ratioP1;P1;durP2;ratioP2;P2;SDS_P1;SDS_P2;PMS_P1;PMS_P2;Temp;Humidity;BMP_temperature;BMP_pressure;BME280_temperature;BME280_humidity;BME280_pressure;Samples;Min_cycle;Max_cycle;Signal;HPM_P1;HPM_P2
2021/03/06 00:00:30;;;;;;;;;;;;;;;;;;2078413;28;8009;-63
2021/03/06 00:01:32;;;;;;;;;;;;;;;;;;2078758;28;7029;-63
2021/03/06 00:02:35;;;;;;;;;;;;;;;;;;2078596;28;7029;-62
2021/03/06 00:03:37;;;;;;;;;;;;;;;;;;2079090;28;7089;-63
2021/03/06 00:04:39;;;;;;;;;;;;;;;;;;2082566;28;7153;-64
2021/03/06 00:05:41;;;;;;;;;;;;;;;;;;2087069;28;7045;-63
2021/03/06 00:06:43;;;;;;;;;;;;;;;;;;2086664;28;7319;-63
2021/03/06 00:07:46;;;;;;;;;;;;;;;;;;2087081;28;7046;-62
2021/03/06 00:08:47;;;;;;;;;;;;;;;;;;2087325;28;7140;-61
2021/03/06 00:09:49;;;;;;;;;;;;;;;;;;2087179;28;7384;-64
2021/03/06 00:10:52;;;;;;;;;;;;;;;;;;2077180;28;7045;-63
2021/03/06 00:11:55;;;;;;;;;;;;;;;;;;2078379;28;7093;-62
2021/03/06 00:12:57;;;;;;;;;;;;;;;;;;2078287;28;8240;-63
2021/03/06 00:13:58;;;;;;;;;;;;;;;;;;2077278;28;7248;-63
2021/03/06 00:15:00;;;;;;;;;;;;;;;;;;2077420;28;7133;-63
2021/03/06 00:16:03;;;;;;;;;;;;;;;;;;2077006;28;7025;-62
2021/03/06 00:17:05;;;;;;;;;;;;;;;;;;2076948;28;7058;-62
2021/03/06 00:18:07;;;;;;;;;;;;;;;;;;2079237;28;7263;-61
2021/03/06 00:19:09;;;;;;;;;;;;;;;;;;2077485;28;8000;-62
2021/03/06 00:20:11;;;;;;;;;;;;;;;;;;2078089;28;7134;-63
2021/03/06 00:21:13;;;;;;;;;;;;;;;;;;2080767;28;7090;-62
2021/03/06 00:22:21;;;;;;;;;;;;;;;;;;2077167;28;7058;-62
2021/03/06 00:23:23;;;;;;;;;;;;;;;;;;2076967;28;7150;-61
2021/03/06 00:24:25;;;;;;;;;;;;;;;;;;2078374;28;8120;-64
2021/03/06 00:25:27;;;;;;;;;;;;;;;;;;2078649;28;7129;-63
2021/03/06 00:26:29;;;;;;;;;;;;;;;;;;2078083;28;7120;-63
2021/03/06 00:27:31;;;;;;;;;;;;;;;;;;2078417;28;9122;-62
2021/03/06 00:28:33;;;;;;;;;;;;;;;;;;2083911;28;7034;-61
2021/03/06 00:29:35;;;;;;;;;;;;;;;;;;2085805;28;7009;-62
2021/03/06 00:30:37;;;;;;;;;;;;;;;;;;2086672;28;7121;-63
2021/03/06 00:31:40;;;;;;;;;;;;;;;;;;2086880;28;7088;-62
2021/03/06 00:32:43;;;;;;;;;;;;;;;;;;2080606;28;7088;-62
2021/03/06 00:33:45;;;;;;;;;;;;;;;;;;2078201;28;7300;-62
2021/03/06 00:34:47;;;;;;;;;;;;;;;;;;2079308;28;8066;-64
2021/03/06 00:35:49;;;;;;;;;;;;;;;;;;2077041;28;7132;-65
2021/03/06 00:36:51;;;;;;;;;;;;;;;;;;2078447;28;7319;-63
2021/03/06 00:37:53;;;;;;;;;;;;;;;;;;2078721;28;7010;-62
2021/03/06 00:38:55;;;;;;;;;;;;;;;;;;2079408;28;7009;-63
2021/03/06 00:39:57;;;;;;;;;;;;;;;;;;2077773;28;7101;-62
2021/03/06 00:40:59;;;;;;;;;;;;;;;;;;2078586;28;9007;-62
2021/03/06 00:42:01;;;;;;;;;;;;;;;;;;2078095;28;7009;-62
2021/03/06 00:43:04;;;;;;;;;;;;;;;;;;2078455;28;7046;-63
2021/03/06 00:44:06;;;;;;;;;;;;;;;;;;2078382;28;7010;-62
2021/03/06 00:45:08;;;;;;;;;;;;;;;;;;2077268;28;7133;-62
2021/03/06 00:46:10;;;;;;;;;;;;;;;;;;2076842;28;7138;-62
2021/03/06 00:47:12;;;;;;;;;;;;;;;;;;2076531;28;7113;-62
2021/03/06 00:48:15;;;;;;;;;;;;;;;;;;2077610;28;7042;-61
2021/03/06 00:49:21;;;;;;;;;;;;;;;;;;2078328;28;8060;-62
2021/03/06 00:50:30;;;;;;;;;;;;;;;;;;2079090;28;7009;-63
2021/03/06 00:51:32;;;;;;;;;;;;;;;;;;2078662;28;7009;-65
2021/03/06 00:52:41;;;;;;;;;;;;;;;;;;2078594;28;7101;-63
2021/03/06 00:53:44;;;;;;;;;;;;;;;;;;2078147;28;7300;-63
2021/03/06 00:54:45;;;;;;;;;;;;;;;;;;2077633;28;7065;-62
2021/03/06 00:55:47;;;;;;;;;;;;;;;;;;2078686;28;7009;-62
2021/03/06 00:56:49;;;;;;;;;;;;;;;;;;2078758;28;7021;-63
2021/03/06 00:57:51;;;;;;;;;;;;;;;;;;2078789;28;7124;-63
2021/03/06 00:58:53;;;;;;;;;;;;;;;;;;2078120;28;7085;-62
2021/03/06 00:59:55;;;;;;;;;;;;;;;;;;2078527;28;8060;-63
2021/03/06 01:00:57;;;;;;;;;;;;;;;;;;2078681;28;8016;-62
2021/03/06 01:02:00;;;;;;;;;;;;;;;;;;2079153;28;7046;-64
2021/03/06 01:03:03;;;;;;;;;;;;;;;;;;2077764;28;7096;-62
2021/03/06 01:04:05;;;;;;;;;;;;;;;;;;2078975;28;7010;-62
2021/03/06 01:05:07;;;;;;;;;;;;;;;;;;2078140;28;7109;-61
2021/03/06 01:06:09;;;;;;;;;;;;;;;;;;2078412;28;8035;-64
2021/03/06 01:07:11;;;;;;;;;;;;;;;;;;2078100;28;8012;-63
2021/03/06 01:08:13;;;;;;;;;;;;;;;;;;2077590;28;7089;-61
2021/03/06 01:09:15;;;;;;;;;;;;;;;;;;2077770;28;7089;-65
2021/03/06 01:10:20;;;;;;;;;;;;;;;;;;2079876;28;7288;-62
2021/03/06 01:11:22;;;;;;;;;;;;;;;;;;2078597;28;8036;-63
2021/03/06 01:12:24;;;;;;;;;;;;;;;;;;2086747;28;7009;-63
2021/03/06 01:13:26;;;;;;;;;;;;;;;;;;2086322;28;7363;-61
2021/03/06 01:14:28;;;;;;;;;;;;;;;;;;2086081;28;7009;-62
2021/03/06 01:15:32;;;;;;;;;;;;;;;;;;2083947;28;7113;-62
2021/03/06 01:16:34;;;;;;;;;;;;;;;;;;2078166;28;8202;-65
2021/03/06 01:17:36;;;;;;;;;;;;;;;;;;2077961;28;8051;-62
2021/03/06 01:18:38;;;;;;;;;;;;;;;;;;2081393;28;7073;-63
2021/03/06 01:19:40;;;;;;;;;;;;;;;;;;2086368;28;7009;-62
2021/03/06 01:20:42;;;;;;;;;;;;;;;;;;2078412;28;8046;-64
2021/03/06 01:21:44;;;;;;;;;;;;;;;;;;2084107;28;7014;-62
2021/03/06 01:23:06;;;;;;;;;;;;;;;;;;2079226;28;8340;-61
2021/03/06 01:24:08;;;;;;;;;;;;;;;;;;2084866;28;8008;-63
2021/03/06 01:25:10;;;;;;;;;;;;;;;;;;2082307;28;8006;-62
2021/03/06 01:26:12;;;;;;;;;;;;;;;;;;2078552;28;7046;-63
2021/03/06 01:27:14;;;;;;;;;;;;;;;;;;2078276;28;7962;-63
2021/03/06 01:28:16;;;;;;;;;;;;;;;;;;2077881;28;7189;-62
2021/03/06 01:29:18;;;;;;;;;;;;;;;;;;2077884;28;8038;-63
2021/03/06 01:30:21;;;;;;;;;;;;;;;;;;2083614;28;7133;-63
2021/03/06 01:31:22;;;;;;;;;;;;;;;;;;2088349;28;7203;-65
2021/03/06 01:32:25;;;;;;;;;;;;;;;;;;2088034;28;7125;-64
2021/03/06 01:33:27;;;;;;;;;;;;;;;;;;2087796;28;7060;-63
2021/03/06 01:34:29;;;;;;;;;;;;;;;;;;2087983;28;7104;-63
2021/03/06 01:35:32;;;;;;;;;;;;;;;;;;2088106;28;7100;-62
2021/03/06 01:36:34;;;;;;;;;;;;;;;;;;2088219;28;7315;-61
2021/03/06 01:37:37;;;;;;;;;;;;;;;;;;2083193;28;8423;-61
2021/03/06 01:38:39;;;;;;;;;;;;;;;;;;2079663;28;7130;-63
2021/03/06 01:39:41;;;;;;;;;;;;;;;;;;2079775;28;7124;-61
2021/03/06 01:40:43;;;;;;;;;;;;;;;;;;2079786;28;7116;-64
2021/03/06 01:41:45;;;;;;;;;;;;;;;;;;2080097;28;7912;-61
2021/03/06 01:42:47;;;;;;;;;;;;;;;;;;2084431;28;7034;-62
2021/03/06 01:43:49;;;;;;;;;;;;;;;;;;2079234;28;7352;-63
2021/03/06 01:44:51;;;;;;;;;;;;;;;;;;2080318;28;7096;-64
2021/03/06 01:45:53;;;;;;;;;;;;;;;;;;2086471;28;7096;-63
2021/03/06 01:46:55;;;;;;;;;;;;;;;;;;2086411;28;7113;-64
2021/03/06 01:47:58;;;;;;;;;;;;;;;;;;2087809;28;7145;-62
2021/03/06 01:49:01;;;;;;;;;;;;;;;;;;2088387;28;8028;-62
2021/03/06 01:50:04;;;;;;;;;;;;;;;;;;2088547;28;7088;-63
2021/03/06 01:51:06;;;;;;;;;;;;;;;;;;2088097;28;8057;-62
2021/03/06 01:52:08;;;;;;;;;;;;;;;;;;2095840;28;8046;-64
2021/03/06 01:53:15;;;;;;;;;;;;;;;;;;2094906;28;7138;-63
2021/03/06 01:54:22;;;;;;;;;;;;;;;;;;2080110;28;7013;-63
2021/03/06 01:55:25;;;;;;;;;;;;;;;;;;2081041;28;7127;-63
2021/03/06 01:56:31;;;;;;;;;;;;;;;;;;2088031;28;7101;-62
2021/03/06 01:57:33;;;;;;;;;;;;;;;;;;2081183;28;7088;-64
2021/03/06 01:58:35;;;;;;;;;;;;;;;;;;2079760;28;7005;-63
2021/03/06 01:59:37;;;;;;;;;;;;;;;;;;2080069;28;7323;-63
2021/03/06 02:00:40;;;;;;;;;;;;;;;;;;2079717;28;7010;-63
2021/03/06 02:01:42;;;;;;;;;;;;;;;;;;2079647;28;7143;-63
2021/03/06 02:02:44;;;;;;;;;;;;;;;;;;2079645;28;9116;-62
2021/03/06 02:03:47;;;;;;;;;;;;;;;;;;2079955;28;7109;-64
2021/03/06 02:04:49;;;;;;;;;;;;;;;;;;2082497;28;7516;-63
2021/03/06 02:05:51;;;;;;;;;;;;;;;;;;2087690;28;7100;-62
2021/03/06 02:06:54;;;;;;;;;;;;;;;;;;2085401;28;7337;-63
2021/03/06 02:07:56;;;;;;;;;;;;;;;;;;2078896;28;7104;-63
2021/03/06 02:08:58;;;;;;;;;;;;;;;;;;2079548;28;7013;-63
2021/03/06 02:10:00;;;;;;;;;;;;;;;;;;2079503;28;8016;-62
2021/03/06 02:11:03;;;;;;;;;;;;;;;;;;2079071;28;7009;-62
2021/03/06 02:12:14;;;;;;;;;;;;;;;;;;2079410;28;7136;-61
2021/03/06 02:13:35;;;;;;;;;;;;;;;;;;2080846;28;8030;-62
2021/03/06 02:15:03;;;;;;;;;;;;;;;;;;2079035;28;7112;-62
2021/03/06 02:16:07;;;;;;;;;;;;;;;;;;2077433;28;7996;-62
2021/03/06 02:17:13;;;;;;;;;;;;;;;;;;2079444;28;8041;-62
2021/03/06 02:18:24;;;;;;;;;;;;;;;;;;2080172;28;7269;-63
2021/03/06 02:19:38;;;;;;;;;;;;;;;;;;2079763;28;7080;-63
2021/03/06 02:21:18;;;;;;;;;;;;;;;;;;2083904;28;7125;-63
2021/03/06 02:22:20;;;;;;;;;;;;;;;;;;2077546;28;8010;-62
2021/03/06 02:23:40;;;;;;;;;;;;;;;;;;2070386;28;7034;-63
2021/03/06 02:25:03;;;;;;;;;;;;;;;;;;2069919;28;7089;-63
2021/03/06 02:26:22;;;;;;;;;;;;;;;;;;2070444;28;7021;-61
2021/03/06 02:27:27;;;;;;;;;;;;;;;;;;2070729;28;7022;-63
2021/03/06 02:28:40;;;;;;;;;;;;;;;;;;2077953;28;7021;-62
2021/03/06 02:29:45;;;;;;;;;;;;;;;;;;2079416;28;7017;-62
2021/03/06 02:30:49;;;;;;;;;;;;;;;;;;2079877;28;7168;-62
2021/03/06 02:31:54;;;;;;;;;;;;;;;;;;2079753;28;7009;-62
2021/03/06 02:32:59;;;;;;;;;;;;;;;;;;2079124;28;7151;-63
2021/03/06 02:34:14;;;;;;;;;;;;;;;;;;2079791;28;7987;-64
2021/03/06 02:35:22;;;;;;;;;;;;;;;;;;2077361;28;7042;-63
2021/03/06 02:36:26;;;;;;;;;;;;;;;;;;2078982;28;7005;-62
2021/03/06 02:37:31;;;;;;;;;;;;;;;;;;2079761;28;7013;-64
2021/03/06 02:38:34;;;;;;;;;;;;;;;;;;2078182;28;7156;-62
2021/03/06 02:39:41;;;;;;;;;;;;;;;;;;2078645;28;8154;-61
2021/03/06 02:40:44;;;;;;;;;;;;;;;;;;2079154;28;8031;-63
2021/03/06 02:41:48;;;;;;;;;;;;;;;;;;2078278;28;7009;-62
2021/03/06 02:42:52;;;;;;;;;;;;;;;;;;2079805;28;7113;-64
2021/03/06 02:43:56;;;;;;;;;;;;;;;;;;2079847;28;7029;-61
2021/03/06 02:44:59;;;;;;;;;;;;;;;;;;2079560;28;7009;-61
2021/03/06 02:46:06;;;;;;;;;;;;;;;;;;2079087;28;7311;-62
2021/03/06 02:47:08;;;;;;;;;;;;;;;;;;2079226;28;7009;-63
2021/03/06 02:48:11;;;;;;;;;;;;;;;;;;2079597;28;7120;-63
2021/03/06 02:49:13;;;;;;;;;;;;;;;;;;2079441;28;7014;-62
2021/03/06 02:50:15;;;;;;;;;;;;;;;;;;2078671;28;8118;-61
2021/03/06 02:51:17;;;;;;;;;;;;;;;;;;2079108;28;8736;-61
2021/03/06 02:52:19;;;;;;;;;;;;;;;;;;2085555;28;7097;-63
2021/03/06 02:53:21;;;;;;;;;;;;;;;;;;2087188;28;7005;-62
2021/03/06 02:54:23;;;;;;;;;;;;;;;;;;2087856;28;7963;-63
2021/03/06 02:55:25;;;;;;;;;;;;;;;;;;2087387;28;7113;-63
2021/03/06 02:56:27;;;;;;;;;;;;;;;;;;2088083;28;7197;-63
2021/03/06 02:57:29;;;;;;;;;;;;;;;;;;2081240;28;7096;-61
2021/03/06 02:58:50;;;;;;;;;;;;;;;;;;2078872;28;7042;-61
2021/03/06 02:59:55;;;;;;;;;;;;;;;;;;2079335;28;7045;-63
2021/03/06 03:01:09;;;;;;;;;;;;;;;;;;2078885;28;7196;-61
2021/03/06 03:02:29;;;;;;;;;;;;;;;;;;2079171;28;7014;-62
2021/03/06 03:03:38;;;;;;;;;;;;;;;;;;2079703;28;7124;-62
2021/03/06 03:04:46;;;;;;;;;;;;;;;;;;2079058;28;8307;-62
2021/03/06 03:06:10;;;;;;;;;;;;;;;;;;2079834;28;8021;-61
2021/03/06 03:07:41;;;;;;;;;;;;;;;;;;2087249;28;8046;-62
2021/03/06 03:09:06;;;;;;;;;;;;;;;;;;2085786;28;7133;-62
2021/03/06 03:10:10;;;;;;;;;;;;;;;;;;2087079;28;7025;-62
2021/03/06 03:11:20;;;;;;;;;;;;;;;;;;2083312;28;7147;-62
2021/03/06 03:12:24;;;;;;;;;;;;;;;;;;2086495;28;8384;-64
2021/03/06 03:13:38;;;;;;;;;;;;;;;;;;2087157;28;7113;-61
2021/03/06 03:14:47;;;;;;;;;;;;;;;;;;2083466;28;7131;-63
2021/03/06 03:15:58;;;;;;;;;;;;;;;;;;2082000;28;7089;-63
2021/03/06 03:17:09;;;;;;;;;;;;;;;;;;2081185;28;7147;-62
2021/03/06 03:18:34;;;;;;;;;;;;;;;;;;2086736;28;7038;-63
2021/03/06 03:19:48;;;;;;;;;;;;;;;;;;2080414;28;7092;-62
2021/03/06 03:20:53;;;;;;;;;;;;;;;;;;2079075;28;7025;-61
2021/03/06 03:21:58;;;;;;;;;;;;;;;;;;2085866;28;7096;-62
2021/03/06 03:23:09;;;;;;;;;;;;;;;;;;2078635;28;7474;-61
2021/03/06 03:24:15;;;;;;;;;;;;;;;;;;2083278;28;7009;-63
2021/03/06 03:25:19;;;;;;;;;;;;;;;;;;2086873;28;7018;-62
2021/03/06 03:26:23;;;;;;;;;;;;;;;;;;2086746;28;7389;-61
2021/03/06 03:27:27;;;;;;;;;;;;;;;;;;2087119;28;7152;-64
2021/03/06 03:28:31;;;;;;;;;;;;;;;;;;2085880;28;7088;-62
2021/03/06 03:29:34;;;;;;;;;;;;;;;;;;2086393;28;7196;-60
2021/03/06 03:30:38;;;;;;;;;;;;;;;;;;2084773;28;7042;-61
2021/03/06 03:31:44;;;;;;;;;;;;;;;;;;2078747;28;7010;-63
2021/03/06 03:32:49;;;;;;;;;;;;;;;;;;2079099;28;7100;-61
2021/03/06 03:33:52;;;;;;;;;;;;;;;;;;2079251;28;7005;-62
2021/03/06 03:34:56;;;;;;;;;;;;;;;;;;2079458;28;7009;-63
2021/03/06 03:36:01;;;;;;;;;;;;;;;;;;2079346;28;7009;-64
2021/03/06 03:37:04;;;;;;;;;;;;;;;;;;2079126;28;7316;-62
2021/03/06 03:38:07;;;;;;;;;;;;;;;;;;2079268;28;7137;-64
2021/03/06 03:39:09;;;;;;;;;;;;;;;;;;2077913;28;7042;-64
2021/03/06 03:40:13;;;;;;;;;;;;;;;;;;2079166;28;7005;-61
2021/03/06 03:41:16;;;;;;;;;;;;;;;;;;2078647;28;7045;-64
2021/03/06 03:42:20;;;;;;;;;;;;;;;;;;2078836;28;7092;-61
2021/03/06 03:43:23;;;;;;;;;;;;;;;;;;2078714;28;8397;-62
2021/03/06 03:44:26;;;;;;;;;;;;;;;;;;2078805;28;7050;-61
2021/03/06 03:45:29;;;;;;;;;;;;;;;;;;2079255;28;7312;-62
2021/03/06 03:46:34;;;;;;;;;;;;;;;;;;2079357;28;7042;-62
2021/03/06 03:47:38;;;;;;;;;;;;;;;;;;2079017;28;7630;-62
2021/03/06 03:48:42;;;;;;;;;;;;;;;;;;2078933;28;7009;-63
2021/03/06 03:49:44;;;;;;;;;;;;;;;;;;2078730;28;7372;-61
2021/03/06 03:50:46;;;;;;;;;;;;;;;;;;2079048;28;7037;-62
2021/03/06 03:51:49;;;;;;;;;;;;;;;;;;2078177;28;7138;-64
2021/03/06 03:52:52;;;;;;;;;;;;;;;;;;2078061;28;7005;-62
2021/03/06 03:53:54;;;;;;;;;;;;;;;;;;2079115;28;7005;-62
2021/03/06 03:54:59;;;;;;;;;;;;;;;;;;2078436;28;7113;-61
2021/03/06 03:56:01;;;;;;;;;;;;;;;;;;2078873;28;7046;-61
2021/03/06 03:57:07;;;;;;;;;;;;;;;;;;2078182;28;8095;-62
2021/03/06 03:58:10;;;;;;;;;;;;;;;;;;2078520;28;7130;-62
2021/03/06 03:59:12;;;;;;;;;;;;;;;;;;2079247;28;7088;-62
2021/03/06 04:00:18;;;;;;;;;;;;;;;;;;2078439;28;7140;-62
2021/03/06 04:01:20;;;;;;;;;;;;;;;;;;2086315;28;7009;-63
2021/03/06 04:02:23;;;;;;;;;;;;;;;;;;2085101;28;7093;-61
2021/03/06 04:03:26;;;;;;;;;;;;;;;;;;2080533;28;7025;-62
2021/03/06 04:04:30;;;;;;;;;;;;;;;;;;2086715;28;7033;-61
2021/03/06 04:05:32;;;;;;;;;;;;;;;;;;2087252;28;7204;-61
2021/03/06 04:06:35;;;;;;;;;;;;;;;;;;2086843;28;7013;-61
2021/03/06 04:07:47;;;;;;;;;;;;;;;;;;2086945;28;7331;-61
2021/03/06 04:08:53;;;;;;;;;;;;;;;;;;2080877;28;8654;-62
2021/03/06 04:09:55;;;;;;;;;;;;;;;;;;2078238;28;7286;-61
2021/03/06 04:10:57;;;;;;;;;;;;;;;;;;2085619;28;7009;-62
2021/03/06 04:11:59;;;;;;;;;;;;;;;;;;2088193;28;7350;-63
2021/03/06 04:13:01;;;;;;;;;;;;;;;;;;2078930;28;7110;-61
2021/03/06 04:14:03;;;;;;;;;;;;;;;;;;2084493;28;7088;-62
2021/03/06 04:15:07;;;;;;;;;;;;;;;;;;2086738;28;8083;-61
2021/03/06 04:16:09;;;;;;;;;;;;;;;;;;2079410;28;7092;-62
2021/03/06 04:17:11;;;;;;;;;;;;;;;;;;2084185;28;8055;-62
2021/03/06 04:18:13;;;;;;;;;;;;;;;;;;2084090;28;7088;-61
2021/03/06 04:19:15;;;;;;;;;;;;;;;;;;2086540;28;7045;-63
2021/03/06 04:20:19;;;;;;;;;;;;;;;;;;2085978;28;7148;-62
2021/03/06 04:21:21;;;;;;;;;;;;;;;;;;2083463;28;7038;-61
2021/03/06 04:22:23;;;;;;;;;;;;;;;;;;2082542;28;7097;-61
2021/03/06 04:23:25;;;;;;;;;;;;;;;;;;2078504;28;7132;-63
2021/03/06 04:24:27;;;;;;;;;;;;;;;;;;2077838;28;7109;-61
2021/03/06 04:25:30;;;;;;;;;;;;;;;;;;2083226;28;9017;-63
2021/03/06 04:26:32;;;;;;;;;;;;;;;;;;2086877;28;7049;-61
2021/03/06 04:27:35;;;;;;;;;;;;;;;;;;2086696;28;7092;-63
2021/03/06 04:28:36;;;;;;;;;;;;;;;;;;2076676;28;7146;-61
2021/03/06 04:29:38;;;;;;;;;;;;;;;;;;2077568;28;7312;-62
2021/03/06 04:30:40;;;;;;;;;;;;;;;;;;2078506;28;7205;-62
2021/03/06 04:31:42;;;;;;;;;;;;;;;;;;2081814;28;7629;-62
2021/03/06 04:32:44;;;;;;;;;;;;;;;;;;2086673;28;8054;-61
2021/03/06 04:33:47;;;;;;;;;;;;;;;;;;2086824;28;8038;-62
2021/03/06 04:34:49;;;;;;;;;;;;;;;;;;2087369;28;7013;-62
2021/03/06 04:35:51;;;;;;;;;;;;;;;;;;2083252;28;8026;-61
2021/03/06 04:36:53;;;;;;;;;;;;;;;;;;2078651;28;7045;-63
2021/03/06 04:37:55;;;;;;;;;;;;;;;;;;2079511;28;7097;-61
2021/03/06 04:38:57;;;;;;;;;;;;;;;;;;2078393;28;7113;-62
2021/03/06 04:39:59;;;;;;;;;;;;;;;;;;2078581;28;8054;-61
2021/03/06 04:41:01;;;;;;;;;;;;;;;;;;2084619;28;7009;-62
2021/03/06 04:42:03;;;;;;;;;;;;;;;;;;2078031;28;7104;-61
2021/03/06 04:43:05;;;;;;;;;;;;;;;;;;2078702;28;7088;-62
2021/03/06 04:44:08;;;;;;;;;;;;;;;;;;2079567;28;7134;-62
2021/03/06 04:45:10;;;;;;;;;;;;;;;;;;2086243;28;7113;-62
2021/03/06 04:46:12;;;;;;;;;;;;;;;;;;2086818;28;7021;-62
2021/03/06 04:47:15;;;;;;;;;;;;;;;;;;2087287;28;7096;-61
2021/03/06 04:48:17;;;;;;;;;;;;;;;;;;2078320;28;7360;-61
2021/03/06 04:49:19;;;;;;;;;;;;;;;;;;2087196;28;7355;-60
2021/03/06 04:50:21;;;;;;;;;;;;;;;;;;2086517;28;8387;-62
2021/03/06 04:51:23;;;;;;;;;;;;;;;;;;2078836;28;7010;-62
2021/03/06 04:52:26;;;;;;;;;;;;;;;;;;2079398;28;7213;-61
2021/03/06 04:53:28;;;;;;;;;;;;;;;;;;2084344;28;7301;-62
2021/03/06 04:54:30;;;;;;;;;;;;;;;;;;2086900;28;8215;-62
2021/03/06 04:55:42;;;;;;;;;;;;;;;;;;2077577;28;7124;-61
2021/03/06 04:56:44;;;;;;;;;;;;;;;;;;2078418;28;8039;-62
2021/03/06 04:57:47;;;;;;;;;;;;;;;;;;2078648;28;8223;-61
2021/03/06 04:58:49;;;;;;;;;;;;;;;;;;2078910;28;8025;-63
2021/03/06 04:59:52;;;;;;;;;;;;;;;;;;2079058;28;8080;-62
2021/03/06 05:00:53;;;;;;;;;;;;;;;;;;2078868;28;7014;-63
2021/03/06 05:01:55;;;;;;;;;;;;;;;;;;2082501;28;7333;-62
2021/03/06 05:02:58;;;;;;;;;;;;;;;;;;2087020;28;8479;-61
2021/03/06 05:04:00;;;;;;;;;;;;;;;;;;2086871;28;7359;-62
2021/03/06 05:05:20;;;;;;;;;;;;;;;;;;2088505;28;7238;-62
2021/03/06 05:06:22;;;;;;;;;;;;;;;;;;2088388;28;7138;-64
2021/03/06 05:07:24;;;;;;;;;;;;;;;;;;2088557;28;7088;-63
2021/03/06 05:08:26;;;;;;;;;;;;;;;;;;2088541;28;7010;-63
2021/03/06 05:09:28;;;;;;;;;;;;;;;;;;2088415;28;7085;-61
2021/03/06 05:10:30;;;;;;;;;;;;;;;;;;2083628;28;7089;-63
2021/03/06 05:11:31;;;;;;;;;;;;;;;;;;2080302;28;8087;-62
2021/03/06 05:12:34;;;;;;;;;;;;;;;;;;2088579;28;7009;-62
2021/03/06 05:13:36;;;;;;;;;;;;;;;;;;2084297;28;8431;-62
2021/03/06 05:14:38;;;;;;;;;;;;;;;;;;2087839;28;7954;-61
2021/03/06 05:15:40;;;;;;;;;;;;;;;;;;2086644;28;7113;-63
2021/03/06 05:16:42;;;;;;;;;;;;;;;;;;2084800;28;7132;-63
2021/03/06 05:17:44;;;;;;;;;;;;;;;;;;2081492;28;7022;-63
2021/03/06 05:18:46;;;;;;;;;;;;;;;;;;2081227;28;7136;-62
2021/03/06 05:19:48;;;;;;;;;;;;;;;;;;2080051;28;7005;-63
2021/03/06 05:20:50;;;;;;;;;;;;;;;;;;2084691;28;7092;-61
2021/03/06 05:21:53;;;;;;;;;;;;;;;;;;2080385;28;7045;-61
2021/03/06 05:22:55;;;;;;;;;;;;;;;;;;2079836;28;7053;-64
2021/03/06 05:23:57;;;;;;;;;;;;;;;;;;2080488;28;7368;-62
2021/03/06 05:24:59;;;;;;;;;;;;;;;;;;2081810;28;8020;-63
2021/03/06 05:26:05;;;;;;;;;;;;;;;;;;2080349;28;8029;-64
2021/03/06 05:27:07;;;;;;;;;;;;;;;;;;2080609;28;7125;-61
2021/03/06 05:28:09;;;;;;;;;;;;;;;;;;2080273;28;7466;-62
2021/03/06 05:29:11;;;;;;;;;;;;;;;;;;2079094;28;7009;-62
2021/03/06 05:30:13;;;;;;;;;;;;;;;;;;2078425;28;7289;-61
2021/03/06 05:31:15;;;;;;;;;;;;;;;;;;2079536;28;8107;-61
2021/03/06 05:32:17;;;;;;;;;;;;;;;;;;2079523;28;7045;-62
2021/03/06 05:33:19;;;;;;;;;;;;;;;;;;2079816;28;8021;-62
2021/03/06 05:34:21;;;;;;;;;;;;;;;;;;2079434;28;7046;-61
2021/03/06 05:35:23;;;;;;;;;;;;;;;;;;2086749;28;7568;-61
2021/03/06 05:36:25;;;;;;;;;;;;;;;;;;2083407;28;7136;-63
2021/03/06 05:37:27;;;;;;;;;;;;;;;;;;2081686;28;7089;-63
2021/03/06 05:38:29;;;;;;;;;;;;;;;;;;2087968;28;7014;-63
2021/03/06 05:39:31;;;;;;;;;;;;;;;;;;2088295;28;8044;-63
2021/03/06 05:40:40;;;;;;;;;;;;;;;;;;2079463;28;7096;-61
2021/03/06 05:41:43;;;;;;;;;;;;;;;;;;2079812;28;7102;-63
2021/03/06 05:42:45;;;;;;;;;;;;;;;;;;2080555;28;7116;-61
2021/03/06 05:43:51;;;;;;;;;;;;;;;;;;2080355;28;7013;-61
2021/03/06 05:44:55;;;;;;;;;;;;;;;;;;2080439;28;7042;-63
2021/03/06 05:45:57;;;;;;;;;;;;;;;;;;2079816;28;7013;-63
2021/03/06 05:47:00;;;;;;;;;;;;;;;;;;2080216;28;7013;-63
2021/03/06 05:48:03;;;;;;;;;;;;;;;;;;2079979;28;7143;-62
2021/03/06 05:49:05;;;;;;;;;;;;;;;;;;2080033;28;7096;-62
2021/03/06 05:50:07;;;;;;;;;;;;;;;;;;2082013;28;7088;-62
2021/03/06 05:51:10;;;;;;;;;;;;;;;;;;2087891;28;7168;-61
2021/03/06 05:52:17;;;;;;;;;;;;;;;;;;2085746;28;7029;-62
2021/03/06 05:53:20;;;;;;;;;;;;;;;;;;2085724;28;7152;-62
2021/03/06 05:54:26;;;;;;;;;;;;;;;;;;2078832;28;8013;-63
2021/03/06 05:55:28;;;;;;;;;;;;;;;;;;2087243;28;7108;-63
2021/03/06 05:56:31;;;;;;;;;;;;;;;;;;2088178;28;7046;-62
2021/03/06 05:57:34;;;;;;;;;;;;;;;;;;2078630;28;7101;-62
2021/03/06 05:58:36;;;;;;;;;;;;;;;;;;2079679;28;8606;-64
2021/03/06 05:59:39;;;;;;;;;;;;;;;;;;2079709;28;7010;-61
2021/03/06 06:00:41;;;;;;;;;;;;;;;;;;2080045;28;7045;-62
2021/03/06 06:01:44;;;;;;;;;;;;;;;;;;2080020;28;8059;-63
2021/03/06 06:02:46;;;;;;;;;;;;;;;;;;2080576;28;7013;-63
2021/03/06 06:03:49;;;;;;;;;;;;;;;;;;2081788;28;7013;-62
2021/03/06 06:04:51;;;;;;;;;;;;;;;;;;2088220;28;8155;-63
2021/03/06 06:05:53;;;;;;;;;;;;;;;;;;2083316;28;7413;-61
2021/03/06 06:06:56;;;;;;;;;;;;;;;;;;2087859;28;7101;-61
2021/03/06 06:08:01;;;;;;;;;;;;;;;;;;2087939;28;7109;-62
2021/03/06 06:09:05;;;;;;;;;;;;;;;;;;2087720;28;7096;-64
2021/03/06 06:10:08;;;;;;;;;;;;;;;;;;2088196;28;7142;-64
2021/03/06 06:11:14;;;;;;;;;;;;;;;;;;2082382;28;7152;-61
2021/03/06 06:12:16;;;;;;;;;;;;;;;;;;2079486;28;7384;-63
2021/03/06 06:13:18;;;;;;;;;;;;;;;;;;2079364;28;7109;-62
2021/03/06 06:14:20;;;;;;;;;;;;;;;;;;2079205;28;7136;-62
2021/03/06 06:15:22;;;;;;;;;;;;;;;;;;2079397;28;7037;-62
2021/03/06 06:16:27;;;;;;;;;;;;;;;;;;2079906;28;7013;-62
2021/03/06 06:17:29;;;;;;;;;;;;;;;;;;2079198;28;7092;-62
2021/03/06 06:18:32;;;;;;;;;;;;;;;;;;2079115;28;7085;-63
2021/03/06 06:19:35;;;;;;;;;;;;;;;;;;2079869;28;7096;-63
2021/03/06 06:20:38;;;;;;;;;;;;;;;;;;2087732;28;7196;-63
2021/03/06 06:21:40;;;;;;;;;;;;;;;;;;2086121;28;8033;-62
2021/03/06 06:22:42;;;;;;;;;;;;;;;;;;2085276;28;8026;-61
2021/03/06 06:24:01;;;;;;;;;;;;;;;;;;2079157;28;7155;-64
2021/03/06 06:25:03;;;;;;;;;;;;;;;;;;2085495;28;7112;-61
2021/03/06 06:26:10;;;;;;;;;;;;;;;;;;2079532;28;7045;-63
2021/03/06 06:27:20;;;;;;;;;;;;;;;;;;2079568;28;7092;-61
2021/03/06 06:28:22;;;;;;;;;;;;;;;;;;2082185;28;8043;-65
2021/03/06 06:29:45;;;;;;;;;;;;;;;;;;2086371;28;7052;-63
2021/03/06 06:31:05;;;;;;;;;;;;;;;;;;2079141;28;7005;-62
2021/03/06 06:32:12;;;;;;;;;;;;;;;;;;2079413;28;7097;-64
2021/03/06 06:33:30;;;;;;;;;;;;;;;;;;2087969;28;7216;-63
2021/03/06 06:34:32;;;;;;;;;;;;;;;;;;2079344;28;7147;-62
2021/03/06 06:35:43;;;;;;;;;;;;;;;;;;2079853;28;7017;-63
2021/03/06 06:36:45;;;;;;;;;;;;;;;;;;2080042;28;7105;-63
2021/03/06 06:38:06;;;;;;;;;;;;;;;;;;2082709;28;7013;-62
2021/03/06 06:39:09;;;;;;;;;;;;;;;;;;2087750;28;7137;-63
2021/03/06 06:40:18;;;;;;;;;;;;;;;;;;2088014;28;7109;-62
2021/03/06 06:41:20;;;;;;;;;;;;;;;;;;2087894;28;7013;-62
2021/03/06 06:42:33;;;;;;;;;;;;;;;;;;2087541;28;7108;-62
2021/03/06 06:43:35;;;;;;;;;;;;;;;;;;2088067;28;7013;-63
2021/03/06 06:44:38;;;;;;;;;;;;;;;;;;2084274;28;7109;-64
2021/03/06 06:45:40;;;;;;;;;;;;;;;;;;2088349;28;7029;-61
2021/03/06 06:46:42;;;;;;;;;;;;;;;;;;2087707;28;7134;-63
2021/03/06 06:47:46;;;;;;;;;;;;;;;;;;2087672;28;7125;-63
2021/03/06 06:49:01;;;;;;;;;;;;;;;;;;2087562;28;7089;-62
2021/03/06 06:50:06;;;;;;;;;;;;;;;;;;2088123;28;7993;-61
2021/03/06 06:51:09;;;;;;;;;;;;;;;;;;2080153;28;7142;-64
2021/03/06 06:52:11;;;;;;;;;;;;;;;;;;2079629;28;7010;-63
2021/03/06 06:53:26;;;;;;;;;;;;;;;;;;2083000;28;7380;-64
2021/03/06 06:54:29;;;;;;;;;;;;;;;;;;2087509;28;7054;-64
2021/03/06 06:55:38;;;;;;;;;;;;;;;;;;2087718;28;7009;-61
2021/03/06 06:56:40;;;;;;;;;;;;;;;;;;2086833;28;7022;-63
2021/03/06 06:57:48;;;;;;;;;;;;;;;;;;2079944;28;7038;-64
2021/03/06 06:58:51;;;;;;;;;;;;;;;;;;2086601;28;7038;-63
2021/03/06 06:59:54;;;;;;;;;;;;;;;;;;2088137;28;7045;-61
2021/03/06 07:00:56;;;;;;;;;;;;;;;;;;2088229;28;7044;-63
2021/03/06 07:02:03;;;;;;;;;;;;;;;;;;2079442;28;7096;-62
2021/03/06 07:03:05;;;;;;;;;;;;;;;;;;2084308;28;7112;-62
2021/03/06 07:04:09;;;;;;;;;;;;;;;;;;2086917;28;7034;-62
2021/03/06 07:05:24;;;;;;;;;;;;;;;;;;2080333;28;7112;-62
2021/03/06 07:06:26;;;;;;;;;;;;;;;;;;2083038;28;7135;-64
2021/03/06 07:07:37;;;;;;;;;;;;;;;;;;2078452;28;7049;-62
2021/03/06 07:08:39;;;;;;;;;;;;;;;;;;2079728;28;7196;-62
2021/03/06 07:09:59;;;;;;;;;;;;;;;;;;2079668;28;7160;-63
2021/03/06 07:11:00;;;;;;;;;;;;;;;;;;2086752;28;7152;-62
2021/03/06 07:12:15;;;;;;;;;;;;;;;;;;2082433;28;7092;-63
2021/03/06 07:13:18;;;;;;;;;;;;;;;;;;2078818;28;7014;-62
2021/03/06 07:14:36;;;;;;;;;;;;;;;;;;2087025;28;7006;-62
2021/03/06 07:15:39;;;;;;;;;;;;;;;;;;2083754;28;7104;-61
2021/03/06 07:16:57;;;;;;;;;;;;;;;;;;2083479;28;7190;-62
2021/03/06 07:18:01;;;;;;;;;;;;;;;;;;2080623;28;7009;-63
2021/03/06 07:19:04;;;;;;;;;;;;;;;;;;2087097;28;7034;-63
2021/03/06 07:20:08;;;;;;;;;;;;;;;;;;2082906;28;7096;-63
2021/03/06 07:21:09;;;;;;;;;;;;;;;;;;2085164;28;7009;-61
2021/03/06 07:22:12;;;;;;;;;;;;;;;;;;2082170;28;7092;-61
2021/03/06 07:23:18;;;;;;;;;;;;;;;;;;2080801;28;7009;-61
2021/03/06 07:24:20;;;;;;;;;;;;;;;;;;2084050;28;7096;-62
2021/03/06 07:25:25;;;;;;;;;;;;;;;;;;2081336;28;8030;-62
2021/03/06 07:26:27;;;;;;;;;;;;;;;;;;2082477;28;8039;-62
2021/03/06 07:27:35;;;;;;;;;;;;;;;;;;2078188;28;7018;-63